Other Surface Observations
Issued by NWS

Home | Current Version | Previous Version | Text Only | Print | Product List | Glossary On
Versions: 1 2 3 4 5 6 7 8 9 10 11 12 13 14 15 16 17 18 19 20 21 22 23 24 25 26 27 28 29 30 31 32 33 34 35 36 37 38 39 40 41 42 43 44 45 46 47 48 49 50
000
SXUS51 KWBC 201339
OSONT
:SHEF ENCODED 6-MINUTE NOS MET DATA
:NATIONAL WATER LEVEL OBSERVATION NETWORK (NWLON)
:TA(AIR TEMP DEG F)  SLP(SEA LEVEL PRESSURE INCHES)
:UD(WIND DIRECTION WHOLE DEGREES) US (WIND SPEED MPH)
:TW(WATER TEMP DEG F) UG(WIND GUSTS MPH) WC(CONDUCTIVITY uMHOS/CM)
:-9999 (MISSING VALUES)
:PROVIDED BY DOC/NOAA/NOS/CO-OPS, (301) 713-2540
:corms@noaa.gov
.E FRCB6 20181120 Z DH1300/TAIRG/DIN06/   75/   76/   76/-9999/   76
.E FRCB6 20181120 Z DH1300/PLIRG/DIN06/30.05/30.06/30.06/-9999/30.06
.E FRCB6 20181120 Z DH1300/TWIRG/DIN06/   73/   73/   73/-9999/   73
.E BEPB6 20181120 Z DH1318/TAIRG/DIN06/   76/   76
.E BEPB6 20181120 Z DH1318/PLIRG/DIN06/30.05/30.06
.E BEPB6 20181120 Z DH1318/USIRG/DIN06/    6/    6
.E BEPB6 20181120 Z DH1318/UDIRG/DIN06/  249/  242
.E BEPB6 20181120 Z DH1318/UGIRG/DIN06/    9/    9
.E BEPB6 20181120 Z DH1318/TWIRG/DIN06/   74/   74
.E PSBM1 20181120 Z DH1318/TAIRG/DIN06/   33/   34
.E PSBM1 20181120 Z DH1318/PLIRG/DIN06/30.00/29.99
.E PSBM1 20181120 Z DH1318/USIRG/DIN06/   12/   11
.E PSBM1 20181120 Z DH1318/UDIRG/DIN06/  329/  334
.E PSBM1 20181120 Z DH1318/UGIRG/DIN06/   16/   14
.E PSBM1 20181120 Z DH1318/TWIRG/DIN06/   48/   48
.E CFWM1 20181120 Z DH1324/TAIRG/DIN06/   32/   32
.E CFWM1 20181120 Z DH1324/PLIRG/DIN06/29.95/29.94
.E CFWM1 20181120 Z DH1324/USIRG/DIN06/    3/    2
.E CFWM1 20181120 Z DH1324/UDIRG/DIN06/   42/   29
.E CFWM1 20181120 Z DH1324/UGIRG/DIN06/    6/    6
.E CFWM1 20181120 Z DH1324/TWIRG/DIN06/   49/   49
.E ATGM1 20181120 Z DH1324/TAIRG/DIN06/   34/   34
.E ATGM1 20181120 Z DH1324/PLIRG/DIN06/29.97/29.97
.E ATGM1 20181120 Z DH1324/USIRG/DIN06/   11/   11
.E ATGM1 20181120 Z DH1324/UDIRG/DIN06/   52/   61
.E ATGM1 20181120 Z DH1324/UGIRG/DIN06/   14/   14
.E ATGM1 20181120 Z DH1324/TWIRG/DIN06/   45/   45
.E CASM1 20181120 Z DH1318/TAIRG/DIN06/   33/   33
.E CASM1 20181120 Z DH1318/PLIRG/DIN06/29.97/29.97
.E CASM1 20181120 Z DH1318/TWIRG/DIN06/   46/   46
.E WELM1 20181120 Z DH1324/TAIRG/DIN06/   33/   33
.E WELM1 20181120 Z DH1324/PLIRG/DIN06/29.95/29.95
.E WELM1 20181120 Z DH1324/USIRG/DIN06/    8/    9
.E WELM1 20181120 Z DH1324/UDIRG/DIN06/   36/   30
.E WELM1 20181120 Z DH1324/UGIRG/DIN06/   10/   11
.E WELM1 20181120 Z DH1324/TWIRG/DIN06/   46/   46
.A BHBM3 20181120 Z DH1324/TAIRG    38/UGIRG -9999/PLIRG 29.88/UDIRG -9999/USIRG -9999/TWIRG -9999/WCIRG -9999
.E FRVM3 20181120 Z DH1318/TAIRG/DIN06/   41/   41
.E FRVM3 20181120 Z DH1318/PLIRG/DIN06/29.87/29.86
.E FRVM3 20181120 Z DH1318/WCIRG/DIN06/32390/31890
.E FRVM3 20181120 Z DH1318/TWIRG/DIN06/   51/   51
.E BLTM3 20181120 Z DH1324/TAIRP/DIN06/   42/   42
.E BLTM3 20181120 Z DH1324/PLIRP/DIN06/29.85/29.85
.E BLTM3 20181120 Z DH1324/USIRP/DIN06/   10/   10
.E BLTM3 20181120 Z DH1324/UDIRP/DIN06/   45/   47
.E BLTM3 20181120 Z DH1324/UGIRP/DIN06/   11/   12
.E BLTM3 20181120 Z DH1324/TAIRG/DIN06/   42/   42
.E BLTM3 20181120 Z DH1324/PLIRG/DIN06/29.85/29.85
.E BLTM3 20181120 Z DH1324/USIRG/DIN06/   10/   10
.E BLTM3 20181120 Z DH1324/UDIRG/DIN06/   45/   47
.E BLTM3 20181120 Z DH1324/UGIRG/DIN06/   11/   12
.E FRXM3 20181120 Z DH1324/TAIRG/DIN06/   42/   42
.E BZBM3 20181120 Z DH1318/TAIRP/DIN06/   46/   46
.E BZBM3 20181120 Z DH1318/PLIRP/DIN06/29.84/29.84
.E BZBM3 20181120 Z DH1318/TWIRP/DIN06/   49/   49
.E BZBM3 20181120 Z DH1318/TAIRG/DIN06/   46/   46
.E BZBM3 20181120 Z DH1318/PLIRG/DIN06/29.84/29.84
.E BZBM3 20181120 Z DH1318/TWIRG/DIN06/   49/   49
.E NTKM3 20181120 Z DH1318/TAIRP/DIN06/   50/   50
.E NTKM3 20181120 Z DH1318/PLIRP/DIN06/29.86/29.85
.E NTKM3 20181120 Z DH1318/USIRP/DIN06/    2/    3
.E NTKM3 20181120 Z DH1318/UDIRP/DIN06/  198/  165
.E NTKM3 20181120 Z DH1318/UGIRP/DIN06/    7/    5
.E NTKM3 20181120 Z DH1318/TWIRP/DIN06/   46/   46
.E NTKM3 20181120 Z DH1318/TAIRG/DIN06/   50/   50
.E NTKM3 20181120 Z DH1318/PLIRG/DIN06/29.86/29.85
.E NTKM3 20181120 Z DH1318/USIRG/DIN06/    2/    3
.E NTKM3 20181120 Z DH1318/UDIRG/DIN06/  198/  166
.E NTKM3 20181120 Z DH1318/UGIRG/DIN06/    6/    5
.E NTKM3 20181120 Z DH1318/TWIRG/DIN06/   46/   46
.E NWPR1 20181120 Z DH1318/TAIRG/DIN06/   41/   42
.E NWPR1 20181120 Z DH1318/PLIRG/DIN06/29.85/29.85
.E NWPR1 20181120 Z DH1318/USIRG/DIN06/    9/    8
.E NWPR1 20181120 Z DH1318/UDIRG/DIN06/    8/   16
.E NWPR1 20181120 Z DH1318/UGIRG/DIN06/   12/   11
.E NWPR1 20181120 Z DH1318/WCIRG/DIN06/31930/31660
.E NWPR1 20181120 Z DH1318/TWIRG/DIN06/   47/   47
.E CPTR1 20181120 Z DH1324/TAIRP/DIN06/   40/   40
.E CPTR1 20181120 Z DH1324/PLIRP/DIN06/29.86/29.86
.E CPTR1 20181120 Z DH1324/USIRP/DIN06/    8/    8
.E CPTR1 20181120 Z DH1324/UDIRP/DIN06/  336/  351
.E CPTR1 20181120 Z DH1324/UGIRP/DIN06/   10/    9
.E CPTR1 20181120 Z DH1324/TWIRP/DIN06/   48/   48
.E CPTR1 20181120 Z DH1318/TAIRG/DIN06/   40/   40
.E CPTR1 20181120 Z DH1318/PLIRG/DIN06/29.86/29.86
.E CPTR1 20181120 Z DH1318/USIRG/DIN06/    9/    8
.E CPTR1 20181120 Z DH1318/UDIRG/DIN06/    6/  336
.E CPTR1 20181120 Z DH1318/UGIRG/DIN06/   11/   10
.E CPTR1 20181120 Z DH1318/TWIRG/DIN06/   47/   48
.E PTCR1 20181120 Z DH1318/TAIRG/DIN06/   41/   40
.E PTCR1 20181120 Z DH1318/PLIRG/DIN06/29.86/29.86
.E PTCR1 20181120 Z DH1318/USIRG/DIN06/    8/    8
.E PTCR1 20181120 Z DH1318/UDIRG/DIN06/   48/   32
.E PTCR1 20181120 Z DH1318/UGIRG/DIN06/   12/   12
.E PVDR1 20181120 Z DH1306/TAIRG/DIN06/   39/   39/-9999/   39
.E PVDR1 20181120 Z DH1306/PLIRG/DIN06/29.87/29.87/-9999/29.87
.E PVDR1 20181120 Z DH1306/USIRG/DIN06/    5/    6/-9999/    6
.E PVDR1 20181120 Z DH1306/UDIRG/DIN06/    0/   10/-9999/    0
.E PVDR1 20181120 Z DH1306/UGIRG/DIN06/    9/   10/-9999/    8
.E FOXR1 20181120 Z DH1318/TAIRG/DIN06/   39/   39
.E FOXR1 20181120 Z DH1318/PLIRG/DIN06/29.85/29.85
.E FOXR1 20181120 Z DH1318/USIRG/DIN06/    6/    6
.E FOXR1 20181120 Z DH1318/UDIRG/DIN06/   47/   39
.E FOXR1 20181120 Z DH1318/UGIRG/DIN06/   11/   11
.E FOXR1 20181120 Z DH1318/TWIRG/DIN06/   49/   49
.E QPTR1 20181120 Z DH1306/TAIRG/DIN06/   41/   41/   40/   40
.E QPTR1 20181120 Z DH1306/PLIRG/DIN06/29.86/29.86/29.86/29.86
.E QPTR1 20181120 Z DH1306/USIRG/DIN06/   11/   12/   12/   10
.E QPTR1 20181120 Z DH1306/UDIRG/DIN06/    4/   13/  356/  359
.E QPTR1 20181120 Z DH1306/UGIRG/DIN06/   14/   15/   15/   15
.E QPTR1 20181120 Z DH1306/WCIRG/DIN06/26810/27880/26360/26200
.E QPTR1 20181120 Z DH1306/TWIRG/DIN06/   47/   47/   47/   47
.A NLNC3 20181120 Z DH1324/TAIRG    40/UGIRG     9/PLIRG 29.85/UDIRG     2/USIRG     5/TWIRG    53/WCIRG -9999
.A NWHC3 20181120 Z DH1330/TAIRP    39/UGIRP    16/PLIRP 29.87/UDIRP    23/USIRP    13/TWIRP    53/WCIRP -9999
.E NWHC3 20181120 Z DH1324/TAIRG/DIN06/   39/   39
.E NWHC3 20181120 Z DH1324/PLIRG/DIN06/29.87/29.87
.E NWHC3 20181120 Z DH1324/USIRG/DIN06/   10/   13
.E NWHC3 20181120 Z DH1324/UDIRG/DIN06/   18/   23
.E NWHC3 20181120 Z DH1324/UGIRG/DIN06/   17/   16
.E NWHC3 20181120 Z DH1324/TWIRG/DIN06/   53/   53
.E BRHC3 20181120 Z DH1318/TAIRG/DIN06/   39/   39
.E BRHC3 20181120 Z DH1318/PLIRG/DIN06/29.85/29.85
.E BRHC3 20181120 Z DH1318/USIRG/DIN06/    7/    9
.E BRHC3 20181120 Z DH1318/UDIRG/DIN06/   13/   18
.E BRHC3 20181120 Z DH1318/UGIRG/DIN06/   12/   13
.E BRHC3 20181120 Z DH1318/TWIRG/DIN06/   51/   51
.A MTKN6 20181120 Z DH1324/TAIRG    50/UGIRG -9999/PLIRG 29.82/UDIRG -9999/USIRG -9999/TWIRG    51/WCIRG -9999
.A KPTN6 20181120 Z DH1324/TAIRP -9999/UGIRP -9999/PLIRP -9999/UDIRP -9999/USIRP -9999/TWIRP    50/WCIRG -9999
.E KPTN6 20181120 Z DH1318/PLIRG/DIN06/29.90/29.90
.E KPTN6 20181120 Z DH1318/TWIRG/DIN06/   50/   50
.E BATN6 20181120 Z DH1324/TAIRG/DIN06/   43/   43
.E BATN6 20181120 Z DH1324/PLIRG/DIN06/29.87/29.87
.E BATN6 20181120 Z DH1324/TWIRG/DIN06/   50/   50
.E TKPN6 20181120 Z DH1318/TAIRG/DIN06/   35/   35
.E TKPN6 20181120 Z DH1318/PLIRG/DIN06/29.92/29.92
.E TKPN6 20181120 Z DH1318/USIRG/DIN06/    6/    6
.E TKPN6 20181120 Z DH1318/UDIRG/DIN06/    8/    5
.E TKPN6 20181120 Z DH1318/UGIRG/DIN06/    8/    8
.E TKPN6 20181120 Z DH1318/TWIRG/DIN06/   39/   39
.A BGNN6 20181120 Z DH1330/TAIRP    44/UGIRP -9999/PLIRP 29.88/UDIRP -9999/USIRP -9999/TWIRP    49/WCIRP -9999
.E BGNN6 20181120 Z DH1318/TAIRG/DIN06/   43/   44
.E BGNN6 20181120 Z DH1318/PLIRG/DIN06/29.88/29.88
.E BGNN6 20181120 Z DH1318/TWIRG/DIN06/   49/   49
.E MHRN6 20181120 Z DH1324/USIRG/DIN06/    8/    7
.E MHRN6 20181120 Z DH1324/UDIRG/DIN06/  346/  315
.E MHRN6 20181120 Z DH1324/UGIRG/DIN06/    9/    9
.E ROBN4 20181120 Z DH1324/TAIRG/DIN06/   43/   43
.E ROBN4 20181120 Z DH1324/PLIRG/DIN06/29.88/29.89
.E ROBN4 20181120 Z DH1324/USIRG/DIN06/   11/   11
.E ROBN4 20181120 Z DH1324/UDIRG/DIN06/  334/  331
.E ROBN4 20181120 Z DH1324/UGIRG/DIN06/   13/   15
.A SDHN4 20181120 Z DH1330/TAIRP    44/UGIRP    10/PLIRP 29.91/UDIRP   326/USIRP     8/TWIRP    45/WCIRP -9999
.E SDHN4 20181120 Z DH1318/TAIRG/DIN06/   45/   44
.E SDHN4 20181120 Z DH1318/PLIRG/DIN06/29.91/29.91
.E SDHN4 20181120 Z DH1318/USIRG/DIN06/    6/    9
.E SDHN4 20181120 Z DH1318/UDIRG/DIN06/  326/  323
.E SDHN4 20181120 Z DH1318/UGIRG/DIN06/    8/   10
.E SDHN4 20181120 Z DH1318/TWIRG/DIN06/   45/   45
.A ACYN4 20181120 Z DH1324/TAIRG    49/UGIRG -9999/PLIRG 29.90/UDIRG -9999/USIRG -9999/TWIRG    51/WCIRG -9999
.E CMAN4 20181120 Z DH1324/TAIRG/DIN06/   51/   51
.E CMAN4 20181120 Z DH1324/PLIRG/DIN06/29.88/29.89
.E CMAN4 20181120 Z DH1324/USIRG/DIN06/   14/   11
.E CMAN4 20181120 Z DH1324/UDIRG/DIN06/  312/  314
.E CMAN4 20181120 Z DH1324/UGIRG/DIN06/   18/   15
.E CMAN4 20181120 Z DH1324/WCIRG/DIN06/30710/30490
.E CMAN4 20181120 Z DH1324/TWIRG/DIN06/   51/   51
.E SJSN4 20181120 Z DH1324/TAIRP/DIN06/   48/   48
.E SJSN4 20181120 Z DH1324/PLIRP/DIN06/29.90/29.90
.E SJSN4 20181120 Z DH1324/USIRP/DIN06/   12/   12
.E SJSN4 20181120 Z DH1324/UDIRP/DIN06/  301/  289
.E SJSN4 20181120 Z DH1324/UGIRP/DIN06/   15/   13
.E SJSN4 20181120 Z DH1324/TWIRP/DIN06/   50/   50
.E BDRN4 20181120 Z DH1324/USIRP/DIN06/    4/    4
.E BDRN4 20181120 Z DH1324/UDIRP/DIN06/  318/  294
.E BDRN4 20181120 Z DH1324/UGIRP/DIN06/    9/    9
.E BDRN4 20181120 Z DH1318/TAIRG/DIN06/   43/   43
.E BDRN4 20181120 Z DH1318/PLIRG/DIN06/29.89/29.89
.E BDRN4 20181120 Z DH1318/USIRG/DIN06/-9999/    4
.E BDRN4 20181120 Z DH1318/UDIRG/DIN06/-9999/  318
.E BDRN4 20181120 Z DH1318/UGIRG/DIN06/-9999/    9
.E BDRN4 20181120 Z DH1318/TWIRG/DIN06/   42/   42
.E MRCP1 20181120 Z DH1318/TAIRG/DIN06/   46/   46
.E MRCP1 20181120 Z DH1318/PLIRG/DIN06/29.90/29.90
.E MRCP1 20181120 Z DH1318/TWIRG/DIN06/   44/   44
.E PHBP1 20181120 Z DH1318/TAIRG/DIN06/   46/   46
.E PHBP1 20181120 Z DH1318/PLIRG/DIN06/29.89/29.89
.E PHBP1 20181120 Z DH1318/TWIRG/DIN06/   41/   41
.A BDSP1 20181120 Z DH1324/TAIRG    45/UGIRG -9999/PLIRG 29.90/UDIRG -9999/USIRG -9999/TWIRG    43/WCIRG -9999
.E NBLP1 20181120 Z DH1324/TAIRP/DIN06/   45/   44
.E NBLP1 20181120 Z DH1324/PLIRP/DIN06/29.90/29.91
.E NBLP1 20181120 Z DH1324/USIRP/DIN06/    7/    8
.E NBLP1 20181120 Z DH1324/UDIRP/DIN06/  329/  318
.E NBLP1 20181120 Z DH1324/UGIRP/DIN06/   10/   12
.E NBLP1 20181120 Z DH1324/TWIRP/DIN06/   43/   43
.E NBLP1 20181120 Z DH1324/TAIRG/DIN06/   45/   44
.E NBLP1 20181120 Z DH1324/PLIRG/DIN06/29.90/29.91
.E NBLP1 20181120 Z DH1324/USIRG/DIN06/    7/    8
.E NBLP1 20181120 Z DH1324/UDIRG/DIN06/  329/  318
.E NBLP1 20181120 Z DH1324/UGIRG/DIN06/   10/   12
.E NBLP1 20181120 Z DH1324/TWIRG/DIN06/   43/   43
.E DELD1 20181120 Z DH1324/TAIRP/DIN06/   46/   46
.E DELD1 20181120 Z DH1324/PLIRP/DIN06/29.91/29.91
.E DELD1 20181120 Z DH1324/USIRP/DIN06/    6/    5
.E DELD1 20181120 Z DH1324/UDIRP/DIN06/  303/  307
.E DELD1 20181120 Z DH1324/UGIRP/DIN06/    8/    9
.E DELD1 20181120 Z DH1324/TWIRP/DIN06/   42/   43
.E DELD1 20181120 Z DH1324/TAIRG/DIN06/   46/   46
.E DELD1 20181120 Z DH1324/PLIRG/DIN06/29.91/29.91
.E DELD1 20181120 Z DH1324/USIRG/DIN06/    6/    5
.E DELD1 20181120 Z DH1324/UDIRG/DIN06/  303/  307
.E DELD1 20181120 Z DH1324/UGIRG/DIN06/    8/    9
.E DELD1 20181120 Z DH1324/TWIRG/DIN06/   42/   43
.E BRND1 20181120 Z DH1324/PLIRP/DIN06/29.91/29.91
.E LWSD1 20181120 Z DH1318/TAIRG/DIN06/   51/   52
.E LWSD1 20181120 Z DH1318/PLIRG/DIN06/29.91/29.91
.E LWSD1 20181120 Z DH1318/USIRG/DIN06/   12/    5
.E LWSD1 20181120 Z DH1318/UDIRG/DIN06/  290/  314
.E LWSD1 20181120 Z DH1318/UGIRG/DIN06/   13/   12
.E LWSD1 20181120 Z DH1318/WCIRG/DIN06/30140/29240
.E LWSD1 20181120 Z DH1318/TWIRG/DIN06/   52/   52
.E OCIM2 20181120 Z DH1318/TAIRG/DIN06/   52/   52
.E OCIM2 20181120 Z DH1318/PLIRG/DIN06/29.92/29.92
.E OCIM2 20181120 Z DH1318/USIRG/DIN06/    6/    6
.E OCIM2 20181120 Z DH1318/UDIRG/DIN06/  292/  299
.E OCIM2 20181120 Z DH1318/UGIRG/DIN06/   12/   12
.E OCIM2 20181120 Z DH1318/TWIRG/DIN06/   53/   53
.E BISM2 20181120 Z DH1324/TAIRG/DIN06/   51/   51
.E BISM2 20181120 Z DH1324/PLIRG/DIN06/29.92/29.92
.E BISM2 20181120 Z DH1324/USIRG/DIN06/    7/    7
.E BISM2 20181120 Z DH1324/UDIRG/DIN06/  291/  295
.E BISM2 20181120 Z DH1324/UGIRG/DIN06/    7/    7
.E BISM2 20181120 Z DH1324/TWIRG/DIN06/   49/   49
.E CAMM2 20181120 Z DH1318/TAIRG/DIN06/   51/   52
.E CAMM2 20181120 Z DH1318/PLIRG/DIN06/29.92/29.92
.E CAMM2 20181120 Z DH1318/TWIRG/DIN06/   49/   49
.E TCBM2 20181120 Z DH1324/TAIRP/DIN06/   45/   45
.E TCBM2 20181120 Z DH1324/PLIRP/DIN06/29.93/29.93
.E TCBM2 20181120 Z DH1324/USIRP/DIN06/    4/    4
.E TCBM2 20181120 Z DH1324/UDIRP/DIN06/   13/   15
.E TCBM2 20181120 Z DH1324/UGIRP/DIN06/    5/    5
.E TCBM2 20181120 Z DH1324/TWIRP/DIN06/   47/   47
.E TCBM2 20181120 Z DH1324/TAIRG/DIN06/   45/   45
.E TCBM2 20181120 Z DH1324/PLIRG/DIN06/29.93/29.93
.E TCBM2 20181120 Z DH1324/USIRG/DIN06/    4/    4
.E TCBM2 20181120 Z DH1324/UDIRG/DIN06/   13/   15
.E TCBM2 20181120 Z DH1324/UGIRG/DIN06/    5/    5
.E TCBM2 20181120 Z DH1324/TWIRG/DIN06/   47/   47
.E CHCM2 20181120 Z DH1324/TAIRP/DIN06/   46/   46
.E CHCM2 20181120 Z DH1324/PLIRP/DIN06/29.92/29.92
.E CHCM2 20181120 Z DH1324/USIRP/DIN06/    4/    7
.E CHCM2 20181120 Z DH1324/UDIRP/DIN06/  304/  320
.E CHCM2 20181120 Z DH1324/UGIRP/DIN06/    7/    9
.E CHCM2 20181120 Z DH1324/TWIRP/DIN06/   46/   46
.E CHCM2 20181120 Z DH1318/TAIRG/DIN06/   46/   46
.E CHCM2 20181120 Z DH1318/PLIRG/DIN06/29.92/29.92
.E CHCM2 20181120 Z DH1318/USIRG/DIN06/    5/    4
.E CHCM2 20181120 Z DH1318/UDIRG/DIN06/  312/  304
.E CHCM2 20181120 Z DH1318/UGIRG/DIN06/    8/    7
.E CHCM2 20181120 Z DH1318/WCIRG/DIN06/  460/  470
.E CHCM2 20181120 Z DH1318/TWIRG/DIN06/   46/   46
.E BLTM2 20181120 Z DH1318/TAIRG/DIN06/   49/   49
.E BLTM2 20181120 Z DH1318/PLIRG/DIN06/29.91/29.92
.E BLTM2 20181120 Z DH1318/USIRG/DIN06/    9/    9
.E BLTM2 20181120 Z DH1318/UDIRG/DIN06/    4/    6
.E BLTM2 20181120 Z DH1318/UGIRG/DIN06/   12/   13
.E BLTM2 20181120 Z DH1318/WCIRG/DIN06/ 4860/ 4820
.E BLTM2 20181120 Z DH1318/TWIRG/DIN06/   49/   49
.E FSKM2 20181120 Z DH1324/TAIRP/DIN06/   49/   49
.E FSKM2 20181120 Z DH1324/PLIRP/DIN06/29.92/29.92
.E FSKM2 20181120 Z DH1324/USIRP/DIN06/   13/   14
.E FSKM2 20181120 Z DH1324/UDIRP/DIN06/  328/  327
.E FSKM2 20181120 Z DH1324/UGIRP/DIN06/   14/   16
.E FSKM2 20181120 Z DH1324/TAIRG/DIN06/   49/   49
.E FSKM2 20181120 Z DH1324/PLIRG/DIN06/29.92/29.92
.E FSKM2 20181120 Z DH1324/USIRG/DIN06/   13/   14
.E FSKM2 20181120 Z DH1324/UDIRG/DIN06/  328/  327
.E FSKM2 20181120 Z DH1324/UGIRG/DIN06/   14/   16
.E FSNM2 20181120 Z DH1312/TAIRP/DIN06/   49/-9999/   49
.E FSNM2 20181120 Z DH1312/PLIRP/DIN06/29.91/-9999/29.91
.E FSNM2 20181120 Z DH1312/USIRP/DIN06/   12/-9999/   16
.E FSNM2 20181120 Z DH1312/UDIRP/DIN06/  330/-9999/  332
.E FSNM2 20181120 Z DH1312/UGIRP/DIN06/   17/-9999/   20
.A CPVM2 20181120 Z DH1324/TAIRG    50/UGIRG -9999/PLIRG -9999/UDIRG -9999/USIRG -9999/TWIRG -9999/WCIRG -9999
.E APAM2 20181120 Z DH1324/TAIRP/DIN06/   49/   49
.E APAM2 20181120 Z DH1324/PLIRP/DIN06/29.91/29.91
.A APAM2 20181120 Z DH1324/TAIRG    49/UGIRG -9999/PLIRG 29.91/UDIRG -9999/USIRG -9999/TWIRG -9999/WCIRG -9999
.E COVM2 20181120 Z DH1324/TAIRG/DIN06/   52/   52
.E COVM2 20181120 Z DH1324/PLIRG/DIN06/29.94/29.94
.E COVM2 20181120 Z DH1324/USIRG/DIN06/   12/   15
.E COVM2 20181120 Z DH1324/UDIRG/DIN06/  337/  344
.E COVM2 20181120 Z DH1324/UGIRG/DIN06/   16/   20
.E SLIM2 20181120 Z DH1324/TAIRP/DIN06/   52/   52
.E SLIM2 20181120 Z DH1324/PLIRP/DIN06/29.92/29.92
.E SLIM2 20181120 Z DH1324/USIRP/DIN06/    7/    5
.E SLIM2 20181120 Z DH1324/UDIRP/DIN06/  323/  315
.E SLIM2 20181120 Z DH1324/UGIRP/DIN06/   10/    8
.E SLIM2 20181120 Z DH1324/TWIRP/DIN06/   52/   52
.E SLIM2 20181120 Z DH1318/TAIRG/DIN06/   52/   52
.E SLIM2 20181120 Z DH1318/PLIRG/DIN06/29.92/29.92
.E SLIM2 20181120 Z DH1318/USIRG/DIN06/    5/    7
.E SLIM2 20181120 Z DH1318/UDIRG/DIN06/  308/  323
.E SLIM2 20181120 Z DH1318/UGIRG/DIN06/    8/   10
.E SLIM2 20181120 Z DH1318/TWIRG/DIN06/   52/   52
.E PPTM2 20181120 Z DH1312/USIRP/DIN06/    4/    4
.E PPTM2 20181120 Z DH1312/UDIRP/DIN06/  346/  343
.E PPTM2 20181120 Z DH1312/UGIRP/DIN06/    4/    4
.E WASD2 20181120 Z DH1324/TAIRP/DIN06/   49/   49
.E WASD2 20181120 Z DH1324/PLIRP/DIN06/29.94/29.94
.E WASD2 20181120 Z DH1324/USIRP/DIN06/    6/    7
.E WASD2 20181120 Z DH1324/UDIRP/DIN06/  316/  324
.E WASD2 20181120 Z DH1324/UGIRP/DIN06/   12/   10
.E WASD2 20181120 Z DH1324/TWIRP/DIN06/   46/   46
.E WAHV2 20181120 Z DH1324/TAIRG/DIN06/   53/   53
.E WAHV2 20181120 Z DH1324/PLIRG/DIN06/29.92/29.92
.E WAHV2 20181120 Z DH1324/USIRG/DIN06/    4/    5
.E WAHV2 20181120 Z DH1324/UDIRG/DIN06/  266/  269
.E WAHV2 20181120 Z DH1324/UGIRG/DIN06/    8/    7
.E WAHV2 20181120 Z DH1324/TWIRG/DIN06/   51/   51
.E KPTV2 20181120 Z DH1318/USIRG/DIN06/   11/   13
.E KPTV2 20181120 Z DH1318/UDIRG/DIN06/  252/  251
.E KPTV2 20181120 Z DH1318/UGIRG/DIN06/   14/   15
.E KPTV2 20181120 Z DH1318/TWIRG/DIN06/   54/   54
.E RPLV2 20181120 Z DH1324/PLIRG/DIN06/29.94/29.95
.E RPLV2 20181120 Z DH1324/USIRG/DIN06/    7/    8
.E RPLV2 20181120 Z DH1324/UDIRG/DIN06/  268/  258
.E RPLV2 20181120 Z DH1324/UGIRG/DIN06/    8/    9
.E NCDV2 20181120 Z DH1318/TAIRG/DIN06/   52/   52
.E NCDV2 20181120 Z DH1318/PLIRG/DIN06/29.91/29.91
.E NCDV2 20181120 Z DH1318/USIRG/DIN06/    2/    5
.E NCDV2 20181120 Z DH1318/UDIRG/DIN06/  321/  326
.E NCDV2 20181120 Z DH1318/UGIRG/DIN06/    5/    6
.E NCDV2 20181120 Z DH1318/TWIRG/DIN06/   49/   49
.E LWTV2 20181120 Z DH1318/TAIRG/DIN06/   49/   49
.E LWTV2 20181120 Z DH1318/PLIRG/DIN06/29.92/29.92
.E LWTV2 20181120 Z DH1318/USIRG/DIN06/    5/    3
.E LWTV2 20181120 Z DH1318/UDIRG/DIN06/  279/  305
.E LWTV2 20181120 Z DH1318/UGIRG/DIN06/    5/    4
.E LWTV2 20181120 Z DH1318/WCIRG/DIN06/ 5020/ 5040
.E LWTV2 20181120 Z DH1318/TWIRG/DIN06/   49/   49
.E YKRV2 20181120 Z DH1324/TAIRP/DIN06/   54/   54
.E YKRV2 20181120 Z DH1324/PLIRP/DIN06/29.95/29.95
.E YKRV2 20181120 Z DH1324/USIRP/DIN06/   11/   10
.E YKRV2 20181120 Z DH1324/UDIRP/DIN06/  265/  266
.E YKRV2 20181120 Z DH1324/UGIRP/DIN06/   12/   11
.E YKRV2 20181120 Z DH1324/TAIRG/DIN06/   54/   54
.E YKRV2 20181120 Z DH1324/PLIRG/DIN06/29.95/29.95
.E YKRV2 20181120 Z DH1324/USIRG/DIN06/   11/   10
.E YKRV2 20181120 Z DH1324/UDIRG/DIN06/  265/  266
.E YKRV2 20181120 Z DH1324/UGIRG/DIN06/   12/   11
.A YKTV2 20181120 Z DH1324/TAIRG    54/UGIRG    13/PLIRG 29.92/UDIRG   240/USIRG    10/TWIRG    54/WCIRG 14060
.E DOMV2 20181120 Z DH1318/TAIRG/DIN06/   54/   54
.E DOMV2 20181120 Z DH1318/PLIRG/DIN06/29.94/29.94
.E DOMV2 20181120 Z DH1318/USIRG/DIN06/    8/    8
.E DOMV2 20181120 Z DH1318/UDIRG/DIN06/  242/  243
.E DOMV2 20181120 Z DH1318/UGIRG/DIN06/   12/   12
.E CRYV2 20181120 Z DH1324/TAIRG/DIN06/   54/   54
.E CRYV2 20181120 Z DH1324/PLIRG/DIN06/29.93/29.93
.E CRYV2 20181120 Z DH1324/USIRG/DIN06/    9/    6
.E CRYV2 20181120 Z DH1324/UDIRG/DIN06/  241/  232
.E CRYV2 20181120 Z DH1324/UGIRG/DIN06/   12/    9
.E SWPV2 20181120 Z DH1318/PLIRG/DIN06/29.93/29.93
.E SWPV2 20181120 Z DH1318/WCIRG/DIN06/14980/15690
.E SWPV2 20181120 Z DH1318/TWIRG/DIN06/   55/   55
.E WDSV2 20181120 Z DH1318/TAIRG/DIN06/   54/   54
.E WDSV2 20181120 Z DH1318/PLIRG/DIN06/29.92/29.91
.E WDSV2 20181120 Z DH1318/USIRG/DIN06/   13/   13
.E WDSV2 20181120 Z DH1318/UDIRG/DIN06/  227/  230
.E WDSV2 20181120 Z DH1318/UGIRG/DIN06/   15/   15
.E CHBV2 20181120 Z DH1318/TAIRG/DIN06/   55/   55
.E CHBV2 20181120 Z DH1318/PLIRG/DIN06/29.90/29.90
.E CHBV2 20181120 Z DH1318/USIRG/DIN06/   12/    9
.E CHBV2 20181120 Z DH1318/UDIRG/DIN06/  235/  237
.E CHBV2 20181120 Z DH1318/UGIRG/DIN06/   18/   15
.E CHYV2 20181120 Z DH1324/TAIRP/DIN06/   54/   54
.E CHYV2 20181120 Z DH1324/PLIRP/DIN06/29.88/29.88
.E CHYV2 20181120 Z DH1324/USIRP/DIN06/   11/    9
.E CHYV2 20181120 Z DH1324/UDIRP/DIN06/  223/  226
.E CHYV2 20181120 Z DH1324/UGIRP/DIN06/   19/   13
.A CHYV2 20181120 Z DH1324/TAIRG    54/UGIRG    19/PLIRG 29.88/UDIRG   223/USIRG    11/TWIRG -9999/WCIRG -9999
.E MNPV2 20181120 Z DH1318/TAIRG/DIN06/   55/   55
.E MNPV2 20181120 Z DH1318/PLIRG/DIN06/29.93/29.93
.E MNPV2 20181120 Z DH1318/USIRG/DIN06/    6/    8
.E MNPV2 20181120 Z DH1318/UDIRG/DIN06/  235/  235
.E MNPV2 20181120 Z DH1318/UGIRG/DIN06/   10/   10
.E MNPV2 20181120 Z DH1318/WCIRG/DIN06/18480/18430
.E MNPV2 20181120 Z DH1318/TWIRG/DIN06/   56/   56
.E DUKN7 20181120 Z DH1324/TAIRG/DIN06/   55/   55
.E DUKN7 20181120 Z DH1324/PLIRG/DIN06/29.94/29.94
.E DUKN7 20181120 Z DH1324/USIRG/DIN06/    9/    8
.E DUKN7 20181120 Z DH1324/UDIRG/DIN06/  213/  216
.E DUKN7 20181120 Z DH1324/UGIRG/DIN06/   12/   12
.E DUKN7 20181120 Z DH1324/TWIRG/DIN06/   60/   60
.E ORIN7 20181120 Z DH1318/TAIRG/DIN06/   54/   54
.E ORIN7 20181120 Z DH1318/PLIRG/DIN06/29.96/29.96
.E ORIN7 20181120 Z DH1318/USIRG/DIN06/   12/   13
.E ORIN7 20181120 Z DH1318/UDIRG/DIN06/  211/  209
.E ORIN7 20181120 Z DH1318/UGIRG/DIN06/   15/   14
.E ORIN7 20181120 Z DH1318/TWIRG/DIN06/   57/   57
.E HCGN7 20181120 Z DH1318/TAIRG/DIN06/   59/   59
.E HCGN7 20181120 Z DH1318/PLIRG/DIN06/29.98/29.98
.E HCGN7 20181120 Z DH1318/USIRG/DIN06/    8/   11
.E HCGN7 20181120 Z DH1318/UDIRG/DIN06/  234/  236
.E HCGN7 20181120 Z DH1318/UGIRG/DIN06/   14/   15
.E HCGN7 20181120 Z DH1318/TWIRG/DIN06/   62/   62
.E BFTN7 20181120 Z DH1324/TAIRP/DIN06/   62/   62
.E BFTN7 20181120 Z DH1324/PLIRP/DIN06/30.01/30.01
.E BFTN7 20181120 Z DH1324/USIRP/DIN06/    6/    5
.E BFTN7 20181120 Z DH1324/UDIRP/DIN06/  247/  249
.E BFTN7 20181120 Z DH1324/UGIRP/DIN06/   12/   10
.E BFTN7 20181120 Z DH1324/TWIRP/DIN06/   62/   62
.E BFTN7 20181120 Z DH1318/TAIRG/DIN06/   62/   62
.E BFTN7 20181120 Z DH1318/PLIRG/DIN06/30.01/30.01
.E BFTN7 20181120 Z DH1318/USIRG/DIN06/    7/    6
.E BFTN7 20181120 Z DH1318/UDIRG/DIN06/  243/  247
.E BFTN7 20181120 Z DH1318/UGIRG/DIN06/   10/   12
.E BFTN7 20181120 Z DH1318/TWIRG/DIN06/   62/   62
.A WLON7 20181120 Z DH1324/TAIRG    57/UGIRG -9999/PLIRG 30.02/UDIRG -9999/USIRG -9999/TWIRG    54/WCIRG -9999
.E JMPN7 20181120 Z DH1324/TAIRP/DIN06/   59/   59
.E JMPN7 20181120 Z DH1324/PLIRP/DIN06/30.03/30.02
.E JMPN7 20181120 Z DH1324/USIRP/DIN06/    8/   10
.E JMPN7 20181120 Z DH1324/UDIRP/DIN06/  251/  248
.E JMPN7 20181120 Z DH1324/UGIRP/DIN06/   12/   13
.E JMPN7 20181120 Z DH1324/TWIRP/DIN06/   66/   66
.A JMPN7 20181120 Z DH1324/TAIRG    59/UGIRG    12/PLIRG 30.03/UDIRG   251/USIRG     8/TWIRG    66/WCIRG -9999
.A MROS1 20181120 Z DH1324/TAIRG    57/UGIRG -9999/PLIRG 30.14/UDIRG -9999/USIRG -9999/TWIRG -9999/WCIRG -9999
.A CHTS1 20181120 Z DH1324/TAIRG    61/UGIRG     8/PLIRG 30.08/UDIRG   277/USIRG     4/TWIRG    63/WCIRG -9999
.E FPKG1 20181120 Z DH1318/TAIRG/DIN06/   60/   59
.E FPKG1 20181120 Z DH1318/PLIRG/DIN06/30.10/30.11
.E FPKG1 20181120 Z DH1318/USIRG/DIN06/    5/    4
.E FPKG1 20181120 Z DH1318/UDIRG/DIN06/  270/  233
.E FPKG1 20181120 Z DH1318/UGIRG/DIN06/    6/    5
.E FPKG1 20181120 Z DH1318/TWIRG/DIN06/   62/   62
.A FRDF1 20181120 Z DH1324/TAIRG    62/UGIRG -9999/PLIRG 30.14/UDIRG -9999/USIRG -9999/TWIRG    66/WCIRG -9999
.E MYPF1 20181120 Z DH1324/TAIRP/DIN06/   63/   63
.E MYPF1 20181120 Z DH1324/PLIRP/DIN06/30.12/30.12
.E MYPF1 20181120 Z DH1324/USIRP/DIN06/    6/    5
.E MYPF1 20181120 Z DH1324/UDIRP/DIN06/  322/  315
.E MYPF1 20181120 Z DH1324/UGIRP/DIN06/    8/    6
.E MYPF1 20181120 Z DH1324/TWIRP/DIN06/   68/   68
.A MYPF1 20181120 Z DH1324/TAIRG    63/UGIRG     8/PLIRG 30.12/UDIRG   322/USIRG     6/TWIRG    68/WCIRG 24230
.E DMSF1 20181120 Z DH1324/WCIRG/DIN06/22400/22400
.E DMSF1 20181120 Z DH1324/TWIRG/DIN06/   69/   69
.E LTJF1 20181120 Z DH1324/TAIRP/DIN06/   64/   64
.E BLIF1 20181120 Z DH1324/TAIRG/DIN06/   64/   64
.E BLIF1 20181120 Z DH1324/PLIRG/DIN06/30.14/30.14
.E BLIF1 20181120 Z DH1324/USIRG/DIN06/    2/    2
.E BLIF1 20181120 Z DH1324/UDIRG/DIN06/  344/  346
.E BLIF1 20181120 Z DH1324/UGIRG/DIN06/    4/    4
.E RCYF1 20181120 Z DH1324/TWIRP/DIN06/   68/   68
.E RCYF1 20181120 Z DH1324/WCIRG/DIN06/  670/  670
.E RCYF1 20181120 Z DH1324/TWIRG/DIN06/   68/   68
.A TRDF1 20181120 Z DH1324/TAIRG    72/UGIRG     2/PLIRG 30.11/UDIRG    54/USIRG     2/TWIRG    76/WCIRG -9999
.E LKWF1 20181120 Z DH1324/TAIRP/DIN06/   79/   79
.E LKWF1 20181120 Z DH1324/PLIRP/DIN06/30.11/30.11
.E LKWF1 20181120 Z DH1324/USIRP/DIN06/    0/    2
.E LKWF1 20181120 Z DH1324/UDIRP/DIN06/  307/  293
.E LKWF1 20181120 Z DH1324/UGIRP/DIN06/    2/    3
.E LKWF1 20181120 Z DH1324/TWIRP/DIN06/   81/   81
.A LKWF1 20181120 Z DH1324/TAIRG    79/UGIRG     2/PLIRG 30.11/UDIRG   307/USIRG     0/TWIRG    81/WCIRG -9999
.E PEGF1 20181120 Z DH1318/TAIRG/DIN06/   81/   81
.E PEGF1 20181120 Z DH1318/PLIRG/DIN06/30.07/30.07
.E PEGF1 20181120 Z DH1318/USIRG/DIN06/    2/    2
.E PEGF1 20181120 Z DH1318/UDIRG/DIN06/  355/  360
.E PEGF1 20181120 Z DH1318/UGIRG/DIN06/    3/    4
.E VAKF1 20181120 Z DH1324/TAIRP/DIN06/   81/   81
.E VAKF1 20181120 Z DH1324/PLIRP/DIN06/30.06/30.07
.E VAKF1 20181120 Z DH1324/USIRP/DIN06/    1/    2
.E VAKF1 20181120 Z DH1324/UDIRP/DIN06/  349/  323
.E VAKF1 20181120 Z DH1324/UGIRP/DIN06/    3/    3
.E VAKF1 20181120 Z DH1324/TWIRP/DIN06/   79/   79
.E VAKF1 20181120 Z DH1318/TAIRG/DIN06/   80/   81
.E VAKF1 20181120 Z DH1318/PLIRG/DIN06/30.06/30.06
.E VAKF1 20181120 Z DH1318/USIRG/DIN06/    1/    1
.E VAKF1 20181120 Z DH1318/UDIRG/DIN06/  353/  349
.E VAKF1 20181120 Z DH1318/UGIRG/DIN06/    4/    3
.E VAKF1 20181120 Z DH1318/TWIRG/DIN06/   79/   79
.E VCAF1 20181120 Z DH1324/TAIRG/DIN06/   77/   77
.E VCAF1 20181120 Z DH1324/PLIRG/DIN06/30.07/30.07
.E VCAF1 20181120 Z DH1324/USIRG/DIN06/    7/    6
.E VCAF1 20181120 Z DH1324/UDIRG/DIN06/  156/  154
.E VCAF1 20181120 Z DH1324/UGIRG/DIN06/    8/    8
.E VCAF1 20181120 Z DH1324/TWIRG/DIN06/   78/   78
.E KYWF1 20181120 Z DH1324/USIRG/DIN06/    6/    3
.E KYWF1 20181120 Z DH1324/UDIRG/DIN06/   54/   47
.E KYWF1 20181120 Z DH1324/UGIRG/DIN06/    7/    7
.E BARA9 20181120 Z DH1318/TAIRG/DIN06/   75/   76
.E BARA9 20181120 Z DH1318/PLIRG/DIN06/30.03/30.03
.E BARA9 20181120 Z DH1318/TWIRG/DIN06/   81/   81



USA.gov is the U.S. government's official web portal to all federal, state and local government web resources and services.